Clarion, IA

9:59 PM CST on December 10, 2019 (GMT -0600)
Clarion Municipal

Weather History for KCAV - November, 2019

Change the Weather History Date:

Wednesday, November 13, 2019

  Actual Average Record
Temperature  
Mean Temperature 22 °F -  
Max Temperature 30 °F 40 °F 77 °F (1999)
Min Temperature 15 °F 25 °F -5 °F (1986)
Degree Days  
Heating Degree Days 42    
Moisture  
Dew Point 20 °F    
Average Humidity 81    
Maximum Humidity 100    
Minimum Humidity 69    
Precipitation  
Precipitation 0.00 in - - ()
Sea Level Pressure  
Sea Level Pressure 29.97 in    
Wind  
Wind Speed 15 mph (SW)    
Max Wind Speed 25 mph    
Max Gust Speed 31 mph    
Visibility 10 miles    
Events      
Averages and records for this station are not official NWS values.
T = Trace of Precipitation, MM = Missing Value Source: NWS Daily Summary

Daily Weather History Graph

Daily Weather History Graph

Search for Another Location

Airport or City:

Astronomy

Nov. 13, 2019 Rise Set
Actual Time 7:04 AM CST 4:54 PM CST
Civil Twilight 6:33 AM CST 5:24 PM CST
Nautical Twilight 5:59 AM CST 5:58 PM CST
Astronomical Twilight 5:26 AM CST 6:31 PM CST
Moon 5:57 PM CST (11/13) 7:58 AM CST (11/13)
Length of Visible Light 10h 50m
Length of Day
9h 50m
Full, 99% of the Moon is Illuminated
Nov 13
Full
Nov 19
Last Quarter
Nov 26
New
Dec 4
First Quarter
Dec 11
Full

Hourly Weather History & Observations

Time (CST) Temp. Windchill Dew Point Humidity Pressure Visibility Wind Dir Wind Speed Gust Speed Precip Events Conditions
12:15 AM 15.8 °F -2.7 °F 8.6 °F 73% 30.02 in 10.0 mi South 24.2 mph 31.1 mph N/A   Partly Cloudy
12:35 AM 15.8 °F -3.1 °F 10.4 °F 79% 30.01 in 10.0 mi South 25.3 mph - N/A   Scattered Clouds
12:55 AM 15.8 °F -1.9 °F 10.4 °F 79% 30.00 in 10.0 mi South 21.9 mph 29.9 mph N/A   Mostly Cloudy
1:15 AM 15.8 °F -1.9 °F 10.4 °F 79% 29.99 in 10.0 mi South 21.9 mph 28.8 mph N/A   Partly Cloudy
1:55 AM 15.8 °F -1.1 °F 10.4 °F 79% 29.97 in 10.0 mi South 19.6 mph 27.6 mph N/A   Clear
2:35 AM 17.6 °F 1.7 °F 12.2 °F 79% 29.96 in 10.0 mi South 18.4 mph - N/A   Mostly Cloudy
2:55 AM 17.6 °F 1.3 °F 12.2 °F 79% 29.95 in 10.0 mi South 19.6 mph 26.5 mph N/A   Overcast
3:15 AM 17.6 °F 1.7 °F 12.2 °F 79% 29.95 in 10.0 mi South 18.4 mph 24.2 mph N/A   Overcast
3:55 AM 17.6 °F 1.3 °F 12.2 °F 79% 29.93 in 10.0 mi South 19.6 mph - N/A   Overcast
4:15 AM 19.4 °F 5.0 °F 14.0 °F 80% 29.93 in 10.0 mi South 16.1 mph - N/A   Overcast
4:35 AM 19.4 °F 5.5 °F 14.0 °F 80% 29.92 in 10.0 mi South 15.0 mph - N/A   Overcast
4:55 AM 19.4 °F 5.5 °F 14.0 °F 80% 29.92 in 10.0 mi South 15.0 mph - N/A   Overcast
5:15 AM 21.2 °F 8.3 °F 15.8 °F 80% 29.92 in 10.0 mi South 13.8 mph - N/A   Overcast
5:35 AM 21.2 °F 7.3 °F 15.8 °F 80% 29.92 in 10.0 mi South 16.1 mph - N/A   Overcast
5:55 AM 23.0 °F 10.6 °F 15.8 °F 74% 29.93 in 10.0 mi South 13.8 mph - N/A   Overcast
6:15 AM 23.0 °F 10.6 °F 15.8 °F 74% 29.93 in 10.0 mi South 13.8 mph - N/A   Overcast
6:35 AM 23.0 °F 11.1 °F 15.8 °F 74% 29.92 in 10.0 mi South 12.7 mph - N/A   Overcast
6:55 AM 23.0 °F 10.6 °F 17.6 °F 80% 29.91 in 9.0 mi South 13.8 mph - N/A   Overcast
7:15 AM 23.0 °F 11.1 °F 17.6 °F 80% 29.91 in 3.0 mi South 12.7 mph - N/A   Haze
7:35 AM 23.0 °F 11.1 °F 17.6 °F 80% 29.92 in 8.0 mi South 12.7 mph 18.4 mph N/A   Mostly Cloudy
7:55 AM 23.0 °F 11.1 °F 17.6 °F 80% 29.92 in 10.0 mi South 12.7 mph - N/A   Mostly Cloudy
8:15 AM 23.0 °F 10.1 °F 17.6 °F 80% 29.91 in 10.0 mi South 15.0 mph - N/A   Mostly Cloudy
8:35 AM 23.0 °F 10.1 °F 17.6 °F 80% 29.91 in 10.0 mi South 15.0 mph - N/A   Mostly Cloudy
8:55 AM 23.0 °F 10.1 °F 17.6 °F 80% 29.92 in 10.0 mi South 15.0 mph - N/A   Overcast
9:15 AM 24.8 °F 12.4 °F 17.6 °F 74% 29.92 in 10.0 mi South 15.0 mph - N/A   Overcast
9:35 AM 24.8 °F 12.9 °F 17.6 °F 74% 29.92 in 10.0 mi South 13.8 mph 20.7 mph N/A   Overcast
9:55 AM 24.8 °F 11.9 °F 17.6 °F 74% 29.93 in 10.0 mi SSW 16.1 mph - N/A   Overcast
10:15 AM 24.8 °F 12.9 °F 17.6 °F 74% 29.93 in 10.0 mi SSW 13.8 mph - N/A   Overcast
10:35 AM 26.6 °F 14.7 °F 17.6 °F 69% 29.93 in 10.0 mi SSW 15.0 mph - N/A   Overcast
10:55 AM 26.6 °F 15.7 °F 17.6 °F 69% 29.93 in 10.0 mi SW 12.7 mph - N/A   Overcast
11:15 AM 26.6 °F 15.7 °F 17.6 °F 69% 29.93 in 10.0 mi SSW 12.7 mph - N/A   Overcast
11:35 AM 26.6 °F 16.8 °F 19.4 °F 74% 29.94 in 10.0 mi SW 10.4 mph - N/A   Overcast
11:55 AM 28.4 °F 18.5 °F 19.4 °F 69% 29.94 in 10.0 mi SW 11.5 mph - N/A   Overcast
12:15 PM 28.4 °F 19.1 °F 19.4 °F 69% 29.94 in 10.0 mi SW 10.4 mph - N/A   Mostly Cloudy
12:35 PM 30.2 °F 21.3 °F 21.2 °F 69% 29.93 in - WSW 10.4 mph - N/A   Unknown
12:55 PM 30.2 °F 21.3 °F 21.2 °F 69% 29.93 in 10.0 mi WSW 10.4 mph - N/A   Unknown
1:15 PM 30.2 °F 21.3 °F 23.0 °F 75% 29.92 in 7.0 mi WSW 10.4 mph - N/A   Scattered Clouds
1:35 PM 30.2 °F 21.3 °F 23.0 °F 75% 29.93 in 6.0 mi WSW 10.4 mph - N/A   Haze
1:55 PM 30.2 °F 21.9 °F 24.8 °F 80% 29.93 in 7.0 mi West 9.2 mph - N/A   Mostly Cloudy
2:15 PM 30.2 °F 21.3 °F 24.8 °F 80% 29.93 in 10.0 mi WSW 10.4 mph - N/A   Scattered Clouds
2:35 PM 30.2 °F 21.3 °F 24.8 °F 80% 29.93 in 10.0 mi West 10.4 mph - N/A   Partly Cloudy
2:55 PM 30.2 °F 22.6 °F 24.8 °F 80% 29.93 in 9.0 mi SW 8.1 mph - N/A   Mostly Cloudy
3:15 PM 30.2 °F 22.6 °F 26.6 °F 86% 29.94 in 10.0 mi SW 8.1 mph - N/A   Overcast
3:35 PM 30.2 °F 21.9 °F 26.6 °F 86% 29.94 in 10.0 mi SW 9.2 mph - N/A   Overcast
3:55 PM 30.2 °F 22.6 °F 26.6 °F 86% 29.95 in 10.0 mi WSW 8.1 mph - N/A   Overcast
4:15 PM 30.2 °F 23.4 °F 26.6 °F 86% 29.95 in 10.0 mi WSW 6.9 mph - N/A   Overcast
4:35 PM 30.2 °F 22.6 °F 26.6 °F 86% 29.96 in 10.0 mi SW 8.1 mph - N/A   Overcast
4:55 PM 30.2 °F 22.6 °F 26.6 °F 86% 29.96 in 10.0 mi SW 8.1 mph - N/A   Overcast
5:15 PM 28.4 °F 21.2 °F 26.6 °F 93% 29.97 in 10.0 mi SW 6.9 mph - N/A   Overcast
5:55 PM 30.2 °F 24.3 °F 26.6 °F 86% 29.99 in 10.0 mi WSW 5.8 mph - N/A   Overcast
6:15 PM 30.2 °F 23.4 °F 28.4 °F 93% 30.00 in 8.0 mi West 6.9 mph - N/A   Overcast
6:35 PM 30.2 °F 23.4 °F 28.4 °F 93% 30.00 in 8.0 mi West 6.9 mph - N/A   Overcast
6:55 PM 30.2 °F 23.4 °F 28.4 °F 93% 30.01 in 9.0 mi NW 6.9 mph - N/A   Overcast
7:15 PM 30.2 °F 23.4 °F 30.2 °F 100% 30.02 in 10.0 mi NNW 6.9 mph - N/A   Overcast
7:35 PM 30.2 °F 21.3 °F 30.2 °F 100% 30.03 in 10.0 mi NNW 10.4 mph - N/A   Overcast
7:55 PM 30.2 °F 19.3 °F 28.4 °F 93% 30.03 in 10.0 mi NNW 15.0 mph - N/A   Overcast
8:15 PM 30.2 °F 20.2 °F 28.4 °F 93% 30.04 in 10.0 mi NNW 12.7 mph - N/A   Overcast
8:35 PM 30.2 °F 18.1 °F 26.6 °F 86% 30.04 in 10.0 mi NW 18.4 mph - N/A   Overcast
8:55 PM 30.2 °F 19.8 °F 24.8 °F 80% 30.05 in 10.0 mi NNW 13.8 mph 20.7 mph N/A   Overcast
9:15 PM 30.2 °F 21.3 °F 26.6 °F 86% 30.06 in 10.0 mi NNW 10.4 mph 18.4 mph N/A   Overcast
9:35 PM 30.2 °F 22.6 °F 26.6 °F 86% 30.07 in 10.0 mi North 8.1 mph 15.0 mph N/A   Overcast
9:55 PM 26.6 °F 20.0 °F 24.8 °F 93% 30.07 in 10.0 mi NNW 5.8 mph - N/A   Partly Cloudy
10:15 PM 26.6 °F 19.1 °F 23.0 °F 86% 30.08 in 10.0 mi NNW 6.9 mph - N/A   Partly Cloudy
10:35 PM 24.8 °F 16.1 °F 23.0 °F 93% 30.09 in 10.0 mi NNW 8.1 mph - N/A   Partly Cloudy
10:55 PM 24.8 °F 14.6 °F 21.2 °F 86% 30.09 in 10.0 mi NNW 10.4 mph - N/A   Clear
11:15 PM 23.0 °F 13.1 °F 21.2 °F 93% 30.09 in 10.0 mi NNW 9.2 mph - N/A   Partly Cloudy
11:35 PM 23.0 °F 13.9 °F 19.4 °F 86% 30.10 in 10.0 mi NNW 8.1 mph - N/A   Mostly Cloudy
11:55 PM 23.0 °F 14.7 °F 19.4 °F 86% 30.10 in 10.0 mi NNW 6.9 mph - N/A   Overcast